sensor_id;sensor_type;location;lat;lon;timestamp;temperature;humidity
20158;DHT22;10239;56.820;24.416;2023-02-08T00:01:11;1.10;99.90
20158;DHT22;10239;56.820;24.416;2023-02-08T00:03:39;1.10;99.90
20158;DHT22;10239;56.820;24.416;2023-02-08T00:06:07;1.10;99.90
20158;DHT22;10239;56.820;24.416;2023-02-08T00:08:36;1.00;99.90
20158;DHT22;10239;56.820;24.416;2023-02-08T00:11:05;1.00;99.90
20158;DHT22;10239;56.820;24.416;2023-02-08T00:13:33;1.00;99.90
20158;DHT22;10239;56.820;24.416;2023-02-08T00:16:00;1.00;99.90
20158;DHT22;10239;56.820;24.416;2023-02-08T00:18:28;1.00;99.90
20158;DHT22;10239;56.820;24.416;2023-02-08T00:20:56;1.20;99.90
20158;DHT22;10239;56.820;24.416;2023-02-08T00:23:24;1.10;99.90
20158;DHT22;10239;56.820;24.416;2023-02-08T00:25:52;0.80;99.90
20158;DHT22;10239;56.820;24.416;2023-02-08T00:28:20;0.90;99.90
20158;DHT22;10239;56.820;24.416;2023-02-08T00:30:47;0.90;99.90
20158;DHT22;10239;56.820;24.416;2023-02-08T00:33:15;1.00;99.90
20158;DHT22;10239;56.820;24.416;2023-02-08T00:35:43;0.90;99.90
20158;DHT22;10239;56.820;24.416;2023-02-08T00:38:11;0.90;99.90
20158;DHT22;10239;56.820;24.416;2023-02-08T00:40:38;0.90;99.90
20158;DHT22;10239;56.820;24.416;2023-02-08T00:43:06;1.00;99.90
20158;DHT22;10239;56.820;24.416;2023-02-08T00:45:34;1.00;99.90
20158;DHT22;10239;56.820;24.416;2023-02-08T00:48:01;1.10;99.90
20158;DHT22;10239;56.820;24.416;2023-02-08T00:50:29;1.20;99.90
20158;DHT22;10239;56.820;24.416;2023-02-08T00:52:58;1.30;99.90
20158;DHT22;10239;56.820;24.416;2023-02-08T00:55:26;1.40;99.90
20158;DHT22;10239;56.820;24.416;2023-02-08T00:57:54;1.40;99.90
20158;DHT22;10239;56.820;24.416;2023-02-08T01:00:21;1.30;99.90
20158;DHT22;10239;56.820;24.416;2023-02-08T01:02:49;1.30;99.90
20158;DHT22;10239;56.820;24.416;2023-02-08T01:05:17;1.40;99.90
20158;DHT22;10239;56.820;24.416;2023-02-08T01:07:44;1.40;99.90
20158;DHT22;10239;56.820;24.416;2023-02-08T01:10:12;1.30;99.90
20158;DHT22;10239;56.820;24.416;2023-02-08T01:12:39;1.30;99.90
20158;DHT22;10239;56.820;24.416;2023-02-08T01:15:08;1.40;99.90
20158;DHT22;10239;56.820;24.416;2023-02-08T01:17:35;1.30;99.90
20158;DHT22;10239;56.820;24.416;2023-02-08T01:20:03;1.40;99.90
20158;DHT22;10239;56.820;24.416;2023-02-08T01:22:31;1.30;99.90
20158;DHT22;10239;56.820;24.416;2023-02-08T01:25:00;1.40;99.90
20158;DHT22;10239;56.820;24.416;2023-02-08T01:27:28;1.40;99.90
20158;DHT22;10239;56.820;24.416;2023-02-08T01:29:56;1.50;99.90
20158;DHT22;10239;56.820;24.416;2023-02-08T01:32:23;1.50;99.90
20158;DHT22;10239;56.820;24.416;2023-02-08T01:34:51;1.50;99.90
20158;DHT22;10239;56.820;24.416;2023-02-08T01:37:18;1.50;99.90
20158;DHT22;10239;56.820;24.416;2023-02-08T01:39:46;1.40;99.90
20158;DHT22;10239;56.820;24.416;2023-02-08T01:42:15;1.40;99.90
20158;DHT22;10239;56.820;24.416;2023-02-08T01:47:42;1.60;99.90
20158;DHT22;10239;56.820;24.416;2023-02-08T01:50:13;1.50;99.90
20158;DHT22;10239;56.820;24.416;2023-02-08T01:52:42;1.50;99.90
20158;DHT22;10239;56.820;24.416;2023-02-08T01:55:19;1.50;99.90
20158;DHT22;10239;56.820;24.416;2023-02-08T01:57:52;1.60;99.90
20158;DHT22;10239;56.820;24.416;2023-02-08T02:00:22;1.60;99.90
20158;DHT22;10239;56.820;24.416;2023-02-08T02:02:52;1.60;99.90
20158;DHT22;10239;56.820;24.416;2023-02-08T02:05:22;1.50;99.90
20158;DHT22;10239;56.820;24.416;2023-02-08T02:07:51;1.60;99.90
20158;DHT22;10239;56.820;24.416;2023-02-08T02:10:34;1.50;99.90
20158;DHT22;10239;56.820;24.416;2023-02-08T02:13:10;1.70;99.90
20158;DHT22;10239;56.820;24.416;2023-02-08T02:15:43;1.50;99.90
20158;DHT22;10239;56.820;24.416;2023-02-08T02:18:16;1.60;99.90
20158;DHT22;10239;56.820;24.416;2023-02-08T02:21:05;1.50;99.90
20158;DHT22;10239;56.820;24.416;2023-02-08T02:27:12;1.60;99.90
20158;DHT22;10239;56.820;24.416;2023-02-08T02:50:54;1.70;99.90
20158;DHT22;10239;56.820;24.416;2023-02-08T02:56:18;1.60;99.90
20158;DHT22;10239;56.820;24.416;2023-02-08T02:58:47;1.80;99.90
20158;DHT22;10239;56.820;24.416;2023-02-08T03:01:21;1.80;99.90
20158;DHT22;10239;56.820;24.416;2023-02-08T03:03:53;1.80;99.90
20158;DHT22;10239;56.820;24.416;2023-02-08T03:12:23;1.80;99.90
20158;DHT22;10239;56.820;24.416;2023-02-08T03:21:11;1.90;99.90
20158;DHT22;10239;56.820;24.416;2023-02-08T03:23:46;1.80;99.90
20158;DHT22;10239;56.820;24.416;2023-02-08T03:26:50;1.70;99.90
20158;DHT22;10239;56.820;24.416;2023-02-08T03:32:45;1.60;99.90
20158;DHT22;10239;56.820;24.416;2023-02-08T03:35:23;1.70;99.90
20158;DHT22;10239;56.820;24.416;2023-02-08T03:38:05;1.50;99.90
20158;DHT22;10239;56.820;24.416;2023-02-08T03:40:38;1.70;99.90
20158;DHT22;10239;56.820;24.416;2023-02-08T03:43:24;1.70;99.90
20158;DHT22;10239;56.820;24.416;2023-02-08T03:46:02;1.80;99.90
20158;DHT22;10239;56.820;24.416;2023-02-08T03:48:33;1.70;99.90
20158;DHT22;10239;56.820;24.416;2023-02-08T03:51:03;1.70;99.90
20158;DHT22;10239;56.820;24.416;2023-02-08T03:53:35;1.80;99.90
20158;DHT22;10239;56.820;24.416;2023-02-08T03:56:10;1.90;99.90
20158;DHT22;10239;56.820;24.416;2023-02-08T03:58:45;1.90;99.90
20158;DHT22;10239;56.820;24.416;2023-02-08T04:01:22;2.00;99.90
20158;DHT22;10239;56.820;24.416;2023-02-08T04:03:52;1.90;99.90
20158;DHT22;10239;56.820;24.416;2023-02-08T04:06:21;1.90;99.90
20158;DHT22;10239;56.820;24.416;2023-02-08T04:08:49;1.80;99.90
20158;DHT22;10239;56.820;24.416;2023-02-08T04:11:16;1.90;99.90
20158;DHT22;10239;56.820;24.416;2023-02-08T04:13:44;2.00;99.90
20158;DHT22;10239;56.820;24.416;2023-02-08T04:16:12;2.00;99.90
20158;DHT22;10239;56.820;24.416;2023-02-08T04:18:40;2.00;99.90
20158;DHT22;10239;56.820;24.416;2023-02-08T04:21:08;2.10;99.90
20158;DHT22;10239;56.820;24.416;2023-02-08T04:23:35;1.90;99.90
20158;DHT22;10239;56.820;24.416;2023-02-08T04:26:03;2.00;99.90
20158;DHT22;10239;56.820;24.416;2023-02-08T04:28:30;2.00;99.90
20158;DHT22;10239;56.820;24.416;2023-02-08T04:30:58;2.10;99.90
20158;DHT22;10239;56.820;24.416;2023-02-08T04:33:26;2.10;99.90
20158;DHT22;10239;56.820;24.416;2023-02-08T04:35:53;2.10;99.90
20158;DHT22;10239;56.820;24.416;2023-02-08T04:38:21;2.20;99.90
20158;DHT22;10239;56.820;24.416;2023-02-08T04:40:49;2.30;99.90
20158;DHT22;10239;56.820;24.416;2023-02-08T04:43:16;2.30;99.90
20158;DHT22;10239;56.820;24.416;2023-02-08T04:45:43;2.20;99.90
20158;DHT22;10239;56.820;24.416;2023-02-08T04:48:11;2.30;99.90
20158;DHT22;10239;56.820;24.416;2023-02-08T04:50:39;2.40;99.90
20158;DHT22;10239;56.820;24.416;2023-02-08T04:53:07;2.40;99.90
20158;DHT22;10239;56.820;24.416;2023-02-08T04:55:34;2.30;99.90
20158;DHT22;10239;56.820;24.416;2023-02-08T04:58:02;2.30;99.90
20158;DHT22;10239;56.820;24.416;2023-02-08T05:00:29;2.30;99.90
20158;DHT22;10239;56.820;24.416;2023-02-08T05:02:58;2.40;99.90
20158;DHT22;10239;56.820;24.416;2023-02-08T05:05:25;2.40;99.90
20158;DHT22;10239;56.820;24.416;2023-02-08T05:07:54;2.40;99.90
20158;DHT22;10239;56.820;24.416;2023-02-08T05:10:22;2.40;99.90
20158;DHT22;10239;56.820;24.416;2023-02-08T05:12:49;2.30;99.90
20158;DHT22;10239;56.820;24.416;2023-02-08T05:15:16;2.40;99.90
20158;DHT22;10239;56.820;24.416;2023-02-08T05:17:44;2.40;99.90
20158;DHT22;10239;56.820;24.416;2023-02-08T05:20:13;2.40;99.90
20158;DHT22;10239;56.820;24.416;2023-02-08T05:22:40;2.40;99.90
20158;DHT22;10239;56.820;24.416;2023-02-08T05:25:08;2.50;99.90
20158;DHT22;10239;56.820;24.416;2023-02-08T05:27:36;2.50;99.90
20158;DHT22;10239;56.820;24.416;2023-02-08T05:30:04;2.60;99.90
20158;DHT22;10239;56.820;24.416;2023-02-08T05:32:31;2.60;99.90
20158;DHT22;10239;56.820;24.416;2023-02-08T05:34:59;2.60;99.90
20158;DHT22;10239;56.820;24.416;2023-02-08T05:37:26;2.60;99.90
20158;DHT22;10239;56.820;24.416;2023-02-08T05:39:54;2.60;99.90
20158;DHT22;10239;56.820;24.416;2023-02-08T05:42:21;2.60;99.90
20158;DHT22;10239;56.820;24.416;2023-02-08T05:44:49;2.70;99.90
20158;DHT22;10239;56.820;24.416;2023-02-08T05:47:17;2.70;99.90
20158;DHT22;10239;56.820;24.416;2023-02-08T05:49:44;2.70;99.90
20158;DHT22;10239;56.820;24.416;2023-02-08T05:52:12;2.70;99.90
20158;DHT22;10239;56.820;24.416;2023-02-08T05:54:39;2.70;99.90
20158;DHT22;10239;56.820;24.416;2023-02-08T05:57:07;2.70;99.90
20158;DHT22;10239;56.820;24.416;2023-02-08T05:59:35;2.70;99.90
20158;DHT22;10239;56.820;24.416;2023-02-08T06:02:02;2.70;99.90
20158;DHT22;10239;56.820;24.416;2023-02-08T06:04:30;2.70;99.90
20158;DHT22;10239;56.820;24.416;2023-02-08T06:06:57;2.80;99.90
20158;DHT22;10239;56.820;24.416;2023-02-08T06:09:25;2.80;99.90
20158;DHT22;10239;56.820;24.416;2023-02-08T06:11:54;2.80;99.90
20158;DHT22;10239;56.820;24.416;2023-02-08T06:14:21;2.80;99.90
20158;DHT22;10239;56.820;24.416;2023-02-08T06:16:49;2.80;99.90
20158;DHT22;10239;56.820;24.416;2023-02-08T06:19:17;2.90;99.90
20158;DHT22;10239;56.820;24.416;2023-02-08T06:21:44;2.80;99.90
20158;DHT22;10239;56.820;24.416;2023-02-08T06:24:12;2.80;99.90
20158;DHT22;10239;56.820;24.416;2023-02-08T06:26:40;2.80;99.90
20158;DHT22;10239;56.820;24.416;2023-02-08T06:29:08;2.80;99.90
20158;DHT22;10239;56.820;24.416;2023-02-08T06:31:35;2.80;99.90
20158;DHT22;10239;56.820;24.416;2023-02-08T06:34:03;2.80;99.90
20158;DHT22;10239;56.820;24.416;2023-02-08T06:36:31;2.80;99.90
20158;DHT22;10239;56.820;24.416;2023-02-08T06:38:59;2.80;99.90
20158;DHT22;10239;56.820;24.416;2023-02-08T06:41:26;2.70;99.90
20158;DHT22;10239;56.820;24.416;2023-02-08T06:43:54;2.90;99.90
20158;DHT22;10239;56.820;24.416;2023-02-08T06:46:25;2.90;99.90
20158;DHT22;10239;56.820;24.416;2023-02-08T06:48:53;2.90;99.90
20158;DHT22;10239;56.820;24.416;2023-02-08T06:51:21;3.00;99.90
20158;DHT22;10239;56.820;24.416;2023-02-08T06:53:49;3.00;99.90
20158;DHT22;10239;56.820;24.416;2023-02-08T06:56:17;3.10;99.90
20158;DHT22;10239;56.820;24.416;2023-02-08T06:58:44;3.00;99.90
20158;DHT22;10239;56.820;24.416;2023-02-08T07:01:13;3.10;99.90
20158;DHT22;10239;56.820;24.416;2023-02-08T07:03:41;3.10;99.90
20158;DHT22;10239;56.820;24.416;2023-02-08T07:06:16;3.10;99.90
20158;DHT22;10239;56.820;24.416;2023-02-08T07:08:46;3.10;99.90
20158;DHT22;10239;56.820;24.416;2023-02-08T07:11:16;3.10;99.90
20158;DHT22;10239;56.820;24.416;2023-02-08T07:13:46;3.10;99.90
20158;DHT22;10239;56.820;24.416;2023-02-08T07:16:15;3.10;99.90
20158;DHT22;10239;56.820;24.416;2023-02-08T07:18:44;3.20;99.90
20158;DHT22;10239;56.820;24.416;2023-02-08T07:21:12;3.20;99.90
20158;DHT22;10239;56.820;24.416;2023-02-08T07:23:39;3.20;99.90
20158;DHT22;10239;56.820;24.416;2023-02-08T07:26:09;3.20;99.90
20158;DHT22;10239;56.820;24.416;2023-02-08T07:28:38;3.20;99.90
20158;DHT22;10239;56.820;24.416;2023-02-08T07:31:11;3.30;99.90
20158;DHT22;10239;56.820;24.416;2023-02-08T07:33:39;3.30;99.90
20158;DHT22;10239;56.820;24.416;2023-02-08T07:36:08;3.40;99.90
20158;DHT22;10239;56.820;24.416;2023-02-08T07:38:37;3.50;99.90
20158;DHT22;10239;56.820;24.416;2023-02-08T07:41:07;3.40;99.90
20158;DHT22;10239;56.820;24.416;2023-02-08T07:43:37;3.40;99.90
20158;DHT22;10239;56.820;24.416;2023-02-08T07:46:13;3.40;99.90
20158;DHT22;10239;56.820;24.416;2023-02-08T07:48:41;3.40;99.90
20158;DHT22;10239;56.820;24.416;2023-02-08T07:51:09;3.40;99.90
20158;DHT22;10239;56.820;24.416;2023-02-08T07:53:37;3.40;99.90
20158;DHT22;10239;56.820;24.416;2023-02-08T07:56:05;3.40;99.90
20158;DHT22;10239;56.820;24.416;2023-02-08T07:58:32;3.40;99.90
20158;DHT22;10239;56.820;24.416;2023-02-08T08:01:00;3.40;99.90
20158;DHT22;10239;56.820;24.416;2023-02-08T08:03:41;3.40;99.90
20158;DHT22;10239;56.820;24.416;2023-02-08T08:06:09;3.40;99.90
20158;DHT22;10239;56.820;24.416;2023-02-08T08:08:36;3.40;99.90
20158;DHT22;10239;56.820;24.416;2023-02-08T08:11:04;3.40;99.90
20158;DHT22;10239;56.820;24.416;2023-02-08T08:13:31;3.40;99.90
20158;DHT22;10239;56.820;24.416;2023-02-08T08:15:58;3.50;99.90
20158;DHT22;10239;56.820;24.416;2023-02-08T08:18:26;3.50;99.90
20158;DHT22;10239;56.820;24.416;2023-02-08T08:20:53;3.50;99.90
20158;DHT22;10239;56.820;24.416;2023-02-08T08:23:20;3.50;99.90
20158;DHT22;10239;56.820;24.416;2023-02-08T08:25:47;3.50;99.90
20158;DHT22;10239;56.820;24.416;2023-02-08T08:28:16;3.50;99.90
20158;DHT22;10239;56.820;24.416;2023-02-08T08:30:44;3.40;99.90
20158;DHT22;10239;56.820;24.416;2023-02-08T08:33:12;3.50;99.90
20158;DHT22;10239;56.820;24.416;2023-02-08T08:35:42;3.40;99.90
20158;DHT22;10239;56.820;24.416;2023-02-08T08:38:13;3.50;99.90
20158;DHT22;10239;56.820;24.416;2023-02-08T08:40:40;3.40;99.90
20158;DHT22;10239;56.820;24.416;2023-02-08T08:43:08;3.50;99.90
20158;DHT22;10239;56.820;24.416;2023-02-08T08:45:35;3.40;99.90
20158;DHT22;10239;56.820;24.416;2023-02-08T08:48:03;3.50;99.90
20158;DHT22;10239;56.820;24.416;2023-02-08T08:50:30;3.50;99.90
20158;DHT22;10239;56.820;24.416;2023-02-08T08:52:58;3.50;99.90
20158;DHT22;10239;56.820;24.416;2023-02-08T08:55:26;3.50;99.90
20158;DHT22;10239;56.820;24.416;2023-02-08T08:57:54;3.50;99.90
20158;DHT22;10239;56.820;24.416;2023-02-08T09:00:22;3.50;99.90
20158;DHT22;10239;56.820;24.416;2023-02-08T09:02:50;3.50;99.90
20158;DHT22;10239;56.820;24.416;2023-02-08T09:05:18;3.50;99.90
20158;DHT22;10239;56.820;24.416;2023-02-08T09:07:45;3.50;99.90
20158;DHT22;10239;56.820;24.416;2023-02-08T09:10:13;3.50;99.90
20158;DHT22;10239;56.820;24.416;2023-02-08T09:12:41;3.40;99.90
20158;DHT22;10239;56.820;24.416;2023-02-08T09:15:08;3.40;99.90
20158;DHT22;10239;56.820;24.416;2023-02-08T09:17:36;3.40;99.90
20158;DHT22;10239;56.820;24.416;2023-02-08T09:20:04;3.40;99.90
20158;DHT22;10239;56.820;24.416;2023-02-08T09:22:32;3.50;99.90
20158;DHT22;10239;56.820;24.416;2023-02-08T09:24:59;3.50;99.90
20158;DHT22;10239;56.820;24.416;2023-02-08T09:27:28;3.40;99.90
20158;DHT22;10239;56.820;24.416;2023-02-08T09:29:56;3.40;99.90
20158;DHT22;10239;56.820;24.416;2023-02-08T09:32:23;3.40;99.90
20158;DHT22;10239;56.820;24.416;2023-02-08T09:34:51;3.40;99.90
20158;DHT22;10239;56.820;24.416;2023-02-08T09:37:18;3.40;99.90
20158;DHT22;10239;56.820;24.416;2023-02-08T09:39:46;3.40;99.90
20158;DHT22;10239;56.820;24.416;2023-02-08T09:42:31;3.40;99.90
20158;DHT22;10239;56.820;24.416;2023-02-08T09:48:30;3.40;99.90
20158;DHT22;10239;56.820;24.416;2023-02-08T09:54:34;3.40;99.90
20158;DHT22;10239;56.820;24.416;2023-02-08T09:57:10;3.40;99.90
20158;DHT22;10239;56.820;24.416;2023-02-08T09:59:50;3.40;99.90
20158;DHT22;10239;56.820;24.416;2023-02-08T10:02:28;3.40;99.90
20158;DHT22;10239;56.820;24.416;2023-02-08T10:05:02;3.30;99.90
20158;DHT22;10239;56.820;24.416;2023-02-08T10:07:31;3.30;99.90
20158;DHT22;10239;56.820;24.416;2023-02-08T10:10:03;3.30;99.90
20158;DHT22;10239;56.820;24.416;2023-02-08T10:12:52;3.40;99.90
20158;DHT22;10239;56.820;24.416;2023-02-08T10:21:02;3.40;99.90
20158;DHT22;10239;56.820;24.416;2023-02-08T10:34:14;3.40;99.90
20158;DHT22;10239;56.820;24.416;2023-02-08T10:36:45;3.40;99.90
20158;DHT22;10239;56.820;24.416;2023-02-08T10:39:18;3.40;99.90
20158;DHT22;10239;56.820;24.416;2023-02-08T10:41:51;3.40;99.90
20158;DHT22;10239;56.820;24.416;2023-02-08T10:50:42;3.40;99.90
20158;DHT22;10239;56.820;24.416;2023-02-08T10:53:15;3.40;99.90
20158;DHT22;10239;56.820;24.416;2023-02-08T10:55:46;3.30;99.90
20158;DHT22;10239;56.820;24.416;2023-02-08T10:58:19;3.40;99.90
20158;DHT22;10239;56.820;24.416;2023-02-08T11:00:49;3.30;99.90
20158;DHT22;10239;56.820;24.416;2023-02-08T11:03:23;3.40;99.90
20158;DHT22;10239;56.820;24.416;2023-02-08T11:05:52;3.40;99.90
20158;DHT22;10239;56.820;24.416;2023-02-08T11:08:22;3.40;99.90
20158;DHT22;10239;56.820;24.416;2023-02-08T11:11:03;3.30;99.90
20158;DHT22;10239;56.820;24.416;2023-02-08T11:13:46;3.30;99.90
20158;DHT22;10239;56.820;24.416;2023-02-08T11:16:22;3.30;99.90
20158;DHT22;10239;56.820;24.416;2023-02-08T11:18:54;3.40;99.90
20158;DHT22;10239;56.820;24.416;2023-02-08T11:23:54;3.20;99.90
20158;DHT22;10239;56.820;24.416;2023-02-08T11:26:37;3.20;99.90
20158;DHT22;10239;56.820;24.416;2023-02-08T11:29:13;3.20;99.90
20158;DHT22;10239;56.820;24.416;2023-02-08T11:32:16;3.20;99.90
20158;DHT22;10239;56.820;24.416;2023-02-08T11:34:44;3.20;99.90
20158;DHT22;10239;56.820;24.416;2023-02-08T11:37:19;3.10;99.90
20158;DHT22;10239;56.820;24.416;2023-02-08T11:39:54;3.20;99.90
20158;DHT22;10239;56.820;24.416;2023-02-08T11:44:58;3.20;99.90
20158;DHT22;10239;56.820;24.416;2023-02-08T11:47:32;3.20;99.90
20158;DHT22;10239;56.820;24.416;2023-02-08T11:50:06;3.20;99.90
20158;DHT22;10239;56.820;24.416;2023-02-08T11:52:37;3.30;99.90
20158;DHT22;10239;56.820;24.416;2023-02-08T11:55:24;3.20;99.90
20158;DHT22;10239;56.820;24.416;2023-02-08T12:00:27;3.30;99.90
20158;DHT22;10239;56.820;24.416;2023-02-08T12:03:16;3.30;99.90
20158;DHT22;10239;56.820;24.416;2023-02-08T12:09:02;3.30;99.90
20158;DHT22;10239;56.820;24.416;2023-02-08T12:20:31;3.40;99.90
20158;DHT22;10239;56.820;24.416;2023-02-08T12:26:13;3.40;99.90
20158;DHT22;10239;56.820;24.416;2023-02-08T12:31:25;3.50;99.90
20158;DHT22;10239;56.820;24.416;2023-02-08T12:43:00;3.30;99.90
20158;DHT22;10239;56.820;24.416;2023-02-08T12:46:04;3.30;99.90
20158;DHT22;10239;56.820;24.416;2023-02-08T12:48:39;3.20;99.90
20158;DHT22;10239;56.820;24.416;2023-02-08T12:54:50;3.10;99.90
20158;DHT22;10239;56.820;24.416;2023-02-08T12:57:22;3.10;99.90
20158;DHT22;10239;56.820;24.416;2023-02-08T13:00:12;3.00;99.90
20158;DHT22;10239;56.820;24.416;2023-02-08T13:05:38;3.00;99.90
20158;DHT22;10239;56.820;24.416;2023-02-08T13:08:44;3.10;99.90
20158;DHT22;10239;56.820;24.416;2023-02-08T13:11:29;3.00;99.90
20158;DHT22;10239;56.820;24.416;2023-02-08T13:14:31;3.00;99.90
20158;DHT22;10239;56.820;24.416;2023-02-08T13:17:04;3.00;99.90
20158;DHT22;10239;56.820;24.416;2023-02-08T13:22:34;2.80;99.90
20158;DHT22;10239;56.820;24.416;2023-02-08T13:25:08;2.90;99.90
20158;DHT22;10239;56.820;24.416;2023-02-08T13:27:40;2.80;99.90
20158;DHT22;10239;56.820;24.416;2023-02-08T13:30:17;2.80;99.90
20158;DHT22;10239;56.820;24.416;2023-02-08T13:32:47;2.90;99.90
20158;DHT22;10239;56.820;24.416;2023-02-08T13:35:29;2.90;99.90
20158;DHT22;10239;56.820;24.416;2023-02-08T13:38:14;2.90;99.90
20158;DHT22;10239;56.820;24.416;2023-02-08T13:40:43;2.80;99.90
20158;DHT22;10239;56.820;24.416;2023-02-08T13:43:32;2.90;99.90
20158;DHT22;10239;56.820;24.416;2023-02-08T13:46:05;2.80;99.90
20158;DHT22;10239;56.820;24.416;2023-02-08T13:48:43;2.80;99.90
20158;DHT22;10239;56.820;24.416;2023-02-08T13:56:49;2.90;99.90
20158;DHT22;10239;56.820;24.416;2023-02-08T13:59:32;2.90;99.90
20158;DHT22;10239;56.820;24.416;2023-02-08T14:02:22;2.80;99.90
20158;DHT22;10239;56.820;24.416;2023-02-08T14:07:58;2.80;99.90
20158;DHT22;10239;56.820;24.416;2023-02-08T14:10:41;2.80;99.90
20158;DHT22;10239;56.820;24.416;2023-02-08T14:13:33;2.90;99.90
20158;DHT22;10239;56.820;24.416;2023-02-08T14:16:39;2.90;99.90
20158;DHT22;10239;56.820;24.416;2023-02-08T14:19:22;2.80;99.90
20158;DHT22;10239;56.820;24.416;2023-02-08T14:25:14;2.80;99.90
20158;DHT22;10239;56.820;24.416;2023-02-08T14:27:42;2.70;99.90
20158;DHT22;10239;56.820;24.416;2023-02-08T14:32:49;2.70;99.90
20158;DHT22;10239;56.820;24.416;2023-02-08T14:35:24;2.80;99.90
20158;DHT22;10239;56.820;24.416;2023-02-08T14:40:58;2.70;99.90
20158;DHT22;10239;56.820;24.416;2023-02-08T14:43:35;2.70;99.90
20158;DHT22;10239;56.820;24.416;2023-02-08T14:49:10;2.70;99.90
20158;DHT22;10239;56.820;24.416;2023-02-08T14:51:53;2.70;99.90
20158;DHT22;10239;56.820;24.416;2023-02-08T14:54:31;2.70;99.90
20158;DHT22;10239;56.820;24.416;2023-02-08T14:57:05;2.70;99.90
20158;DHT22;10239;56.820;24.416;2023-02-08T14:59:34;2.60;99.90
20158;DHT22;10239;56.820;24.416;2023-02-08T15:02:11;2.70;99.90
20158;DHT22;10239;56.820;24.416;2023-02-08T15:04:43;2.70;99.90
20158;DHT22;10239;56.820;24.416;2023-02-08T15:09:55;2.70;99.90
20158;DHT22;10239;56.820;24.416;2023-02-08T15:12:29;2.70;99.90
20158;DHT22;10239;56.820;24.416;2023-02-08T15:15:01;2.70;99.90
20158;DHT22;10239;56.820;24.416;2023-02-08T15:17:38;2.70;99.90
20158;DHT22;10239;56.820;24.416;2023-02-08T15:20:28;2.60;99.90
20158;DHT22;10239;56.820;24.416;2023-02-08T15:22:59;2.60;99.90
20158;DHT22;10239;56.820;24.416;2023-02-08T15:25:33;2.60;99.90
20158;DHT22;10239;56.820;24.416;2023-02-08T15:28:21;2.60;99.90
20158;DHT22;10239;56.820;24.416;2023-02-08T15:31:14;2.60;99.90
20158;DHT22;10239;56.820;24.416;2023-02-08T15:33:44;2.60;99.90
20158;DHT22;10239;56.820;24.416;2023-02-08T15:36:16;2.60;99.90
20158;DHT22;10239;56.820;24.416;2023-02-08T15:38:45;2.50;99.90
20158;DHT22;10239;56.820;24.416;2023-02-08T15:41:33;2.50;99.90
20158;DHT22;10239;56.820;24.416;2023-02-08T15:44:21;2.50;99.90
20158;DHT22;10239;56.820;24.416;2023-02-08T15:46:51;2.50;99.90
20158;DHT22;10239;56.820;24.416;2023-02-08T15:49:38;2.50;99.90
20158;DHT22;10239;56.820;24.416;2023-02-08T15:52:07;2.50;99.90
20158;DHT22;10239;56.820;24.416;2023-02-08T15:54:34;2.50;99.90
20158;DHT22;10239;56.820;24.416;2023-02-08T15:57:15;2.50;99.90
20158;DHT22;10239;56.820;24.416;2023-02-08T15:59:46;2.50;99.90
20158;DHT22;10239;56.820;24.416;2023-02-08T16:02:29;2.50;99.90
20158;DHT22;10239;56.820;24.416;2023-02-08T16:05:00;2.50;99.90
20158;DHT22;10239;56.820;24.416;2023-02-08T16:07:35;2.50;99.90
20158;DHT22;10239;56.820;24.416;2023-02-08T16:10:05;2.50;99.90
20158;DHT22;10239;56.820;24.416;2023-02-08T16:12:34;2.50;99.90
20158;DHT22;10239;56.820;24.416;2023-02-08T16:15:02;2.50;99.90
20158;DHT22;10239;56.820;24.416;2023-02-08T16:17:45;2.60;99.90
20158;DHT22;10239;56.820;24.416;2023-02-08T16:20:31;2.60;99.90
20158;DHT22;10239;56.820;24.416;2023-02-08T16:23:21;2.50;99.90
20158;DHT22;10239;56.820;24.416;2023-02-08T16:25:50;2.50;99.90
20158;DHT22;10239;56.820;24.416;2023-02-08T16:28:25;2.50;99.90
20158;DHT22;10239;56.820;24.416;2023-02-08T16:30:59;2.60;99.90
20158;DHT22;10239;56.820;24.416;2023-02-08T16:33:29;2.60;99.90
20158;DHT22;10239;56.820;24.416;2023-02-08T16:35:59;2.60;99.90
20158;DHT22;10239;56.820;24.416;2023-02-08T16:38:31;2.60;99.90
20158;DHT22;10239;56.820;24.416;2023-02-08T16:41:02;2.60;99.90
20158;DHT22;10239;56.820;24.416;2023-02-08T16:43:42;2.50;99.90
20158;DHT22;10239;56.820;24.416;2023-02-08T16:46:19;2.50;99.90
20158;DHT22;10239;56.820;24.416;2023-02-08T16:48:53;2.40;99.90
20158;DHT22;10239;56.820;24.416;2023-02-08T16:51:30;2.40;99.90
20158;DHT22;10239;56.820;24.416;2023-02-08T16:54:03;2.50;99.90
20158;DHT22;10239;56.820;24.416;2023-02-08T16:56:34;2.50;99.90
20158;DHT22;10239;56.820;24.416;2023-02-08T16:59:03;2.50;99.90
20158;DHT22;10239;56.820;24.416;2023-02-08T17:01:31;2.50;99.90
20158;DHT22;10239;56.820;24.416;2023-02-08T17:03:59;2.50;99.90
20158;DHT22;10239;56.820;24.416;2023-02-08T17:08:55;2.60;99.90
20158;DHT22;10239;56.820;24.416;2023-02-08T17:11:23;2.50;99.90
20158;DHT22;10239;56.820;24.416;2023-02-08T17:13:50;2.50;99.90
20158;DHT22;10239;56.820;24.416;2023-02-08T17:16:21;2.50;99.90
20158;DHT22;10239;56.820;24.416;2023-02-08T17:18:52;2.50;99.90
20158;DHT22;10239;56.820;24.416;2023-02-08T17:21:19;2.50;99.90
20158;DHT22;10239;56.820;24.416;2023-02-08T17:23:47;2.50;99.90
20158;DHT22;10239;56.820;24.416;2023-02-08T17:26:24;2.50;99.90
20158;DHT22;10239;56.820;24.416;2023-02-08T17:28:57;2.50;99.90
20158;DHT22;10239;56.820;24.416;2023-02-08T17:31:26;2.50;99.90
20158;DHT22;10239;56.820;24.416;2023-02-08T17:33:56;2.50;99.90
20158;DHT22;10239;56.820;24.416;2023-02-08T17:36:34;2.50;99.90
20158;DHT22;10239;56.820;24.416;2023-02-08T17:39:03;2.50;99.90
20158;DHT22;10239;56.820;24.416;2023-02-08T17:41:31;2.50;99.90
20158;DHT22;10239;56.820;24.416;2023-02-08T17:43:59;2.50;99.90
20158;DHT22;10239;56.820;24.416;2023-02-08T17:46:28;2.50;99.90
20158;DHT22;10239;56.820;24.416;2023-02-08T17:48:59;2.50;99.90
20158;DHT22;10239;56.820;24.416;2023-02-08T17:51:28;2.50;99.90
20158;DHT22;10239;56.820;24.416;2023-02-08T17:53:56;2.50;99.90
20158;DHT22;10239;56.820;24.416;2023-02-08T17:56:28;2.50;99.90
20158;DHT22;10239;56.820;24.416;2023-02-08T17:58:58;2.50;99.90
20158;DHT22;10239;56.820;24.416;2023-02-08T18:01:27;2.60;99.90
20158;DHT22;10239;56.820;24.416;2023-02-08T18:03:55;2.50;99.90
20158;DHT22;10239;56.820;24.416;2023-02-08T18:06:23;2.50;99.90
20158;DHT22;10239;56.820;24.416;2023-02-08T18:08:52;2.50;99.90
20158;DHT22;10239;56.820;24.416;2023-02-08T18:11:21;2.50;99.90
20158;DHT22;10239;56.820;24.416;2023-02-08T18:13:51;2.60;99.90
20158;DHT22;10239;56.820;24.416;2023-02-08T18:16:25;2.60;99.90
20158;DHT22;10239;56.820;24.416;2023-02-08T18:18:55;2.50;99.90
20158;DHT22;10239;56.820;24.416;2023-02-08T18:21:23;2.50;99.90
20158;DHT22;10239;56.820;24.416;2023-02-08T18:24:00;2.60;99.90